createdAt,value
2019-01-16T00:04:02.220Z,10.20
2019-01-16T00:09:29.494Z,10.30
2019-01-16T00:14:55.526Z,10.30
2019-01-16T00:20:26.395Z,10.30
2019-01-16T00:25:57.635Z,10.40
2019-01-16T00:31:28.411Z,10.30
2019-01-16T00:36:59.043Z,10.30
2019-01-16T00:42:29.743Z,10.30
2019-01-16T00:48:02.959Z,10.30
2019-01-16T00:53:36.652Z,10.20
2019-01-16T00:59:07.398Z,10.30
2019-01-16T01:04:38.269Z,10.20
2019-01-16T01:10:02.858Z,10.20
2019-01-16T01:15:28.411Z,10.20
2019-01-16T01:20:59.471Z,10.30
2019-01-16T01:26:30.016Z,10.20
2019-01-16T01:31:58.109Z,10.20
2019-01-16T01:37:28.569Z,10.20
2019-01-16T01:43:05.375Z,10.20
2019-01-16T01:48:26.599Z,10.20
2019-01-16T01:53:50.081Z,10.20
2019-01-16T01:59:26.764Z,10.20
2019-01-16T02:04:55.803Z,10.30
2019-01-16T02:10:22.825Z,10.30
2019-01-16T02:15:53.640Z,10.30
2019-01-16T02:21:24.375Z,10.20
2019-01-16T02:26:47.030Z,10.30
2019-01-16T02:32:17.418Z,10.30
2019-01-16T02:37:48.276Z,10.20
2019-01-16T02:43:13.471Z,10.20
2019-01-16T02:48:31.353Z,10.20
2019-01-16T02:54:05.209Z,10.20
2019-01-16T02:59:36.190Z,10.20
2019-01-16T03:05:03.401Z,10.10
2019-01-16T03:10:33.636Z,10.20
2019-01-16T03:16:10.836Z,10.20
2019-01-16T03:21:41.488Z,10.20
2019-01-16T03:27:12.212Z,10.20
2019-01-16T03:32:42.988Z,10.20
2019-01-16T03:38:19.179Z,10.20
2019-01-16T03:43:47.260Z,10.10
2019-01-16T03:49:13.800Z,10.20
2019-01-16T03:55:02.567Z,10.20
2019-01-16T04:00:40.543Z,10.20
2019-01-16T04:06:12.664Z,10.20
2019-01-16T04:11:43.359Z,10.20
2019-01-16T04:17:02.173Z,10.20
2019-01-16T04:22:40.139Z,10.20
2019-01-16T04:28:10.932Z,10.10
2019-01-16T04:33:41.611Z,10.10
2019-01-16T04:39:08.007Z,10.10
2019-01-16T04:44:38.932Z,10.10
2019-01-16T04:50:09.640Z,10.10
2019-01-16T04:55:46.338Z,10.20
2019-01-16T05:01:16.879Z,10.20
2019-01-16T05:06:53.607Z,10.20
2019-01-16T05:12:24.549Z,10.20
2019-01-16T05:17:55.284Z,10.10
2019-01-16T05:23:31.811Z,10.10
2019-01-16T05:29:05.955Z,10.10
2019-01-16T05:34:37.089Z,10.10
2019-01-16T05:40:02.912Z,10.20
2019-01-16T05:45:33.887Z,10.10
2019-01-16T05:50:57.151Z,10.20
2019-01-16T05:56:27.924Z,10.20
2019-01-16T06:01:58.371Z,10.20
2019-01-16T06:07:19.008Z,10.20
2019-01-16T06:12:49.728Z,10.20
2019-01-16T06:18:17.205Z,10.20
2019-01-16T06:23:50.898Z,10.20
2019-01-16T06:29:21.756Z,10.20
2019-01-16T06:34:43.856Z,10.10
2019-01-16T06:40:15.019Z,10.10
2019-01-16T06:45:33.759Z,10.10
2019-01-16T06:51:11.733Z,10.10
2019-01-16T06:56:33.148Z,10.10
2019-01-16T07:02:04.136Z,10.10
2019-01-16T07:07:27.783Z,10.10
2019-01-16T07:12:57.178Z,10.20
2019-01-16T07:18:27.844Z,10.20
2019-01-16T07:23:58.607Z,10.20
2019-01-16T07:29:26.392Z,10.10
2019-01-16T07:34:58.815Z,10.10
2019-01-16T07:40:33.023Z,10.00
2019-01-16T07:46:03.605Z,10.00
2019-01-16T07:51:29.725Z,10.10
2019-01-16T07:57:00.106Z,10.20
2019-01-16T08:02:31.087Z,10.20
2019-01-16T08:08:01.839Z,10.20
2019-01-16T08:13:35.885Z,10.20
2019-01-16T08:19:03.183Z,10.10
2019-01-16T08:24:30.071Z,10.20
2019-01-16T08:29:49.976Z,10.20
2019-01-16T08:35:21.083Z,10.20
2019-01-16T08:40:51.654Z,10.20
2019-01-16T08:46:22.543Z,10.20
2019-01-16T08:51:52.984Z,10.20
2019-01-16T08:57:23.475Z,10.20
2019-01-16T09:02:45.879Z,10.20
2019-01-16T09:08:16.664Z,10.20
2019-01-16T09:13:47.691Z,10.20
2019-01-16T09:19:18.359Z,10.20
2019-01-16T09:24:49.159Z,10.30
2019-01-16T09:30:20.000Z,10.30
2019-01-16T09:35:51.307Z,10.30
2019-01-16T09:41:22.425Z,10.30
2019-01-16T09:46:41.522Z,10.20
2019-01-16T09:52:12.775Z,10.20
2019-01-16T09:57:43.209Z,10.20
2019-01-16T10:03:15.371Z,10.30
2019-01-16T10:08:44.443Z,10.30
2019-01-16T10:14:22.433Z,10.30
2019-01-16T10:19:53.136Z,10.30
2019-01-16T10:25:11.471Z,10.30
2019-01-16T10:30:34.706Z,10.30
2019-01-16T10:36:06.000Z,10.30
2019-01-16T10:41:36.887Z,10.40
2019-01-16T10:47:07.323Z,10.40
2019-01-16T10:52:34.775Z,10.40
2019-01-16T10:58:05.555Z,10.40
2019-01-16T11:03:36.345Z,10.40
2019-01-16T11:09:07.600Z,10.50
2019-01-16T11:14:38.636Z,10.50
2019-01-16T11:20:09.572Z,10.40
2019-01-16T11:25:37.059Z,10.40
2019-01-16T11:31:13.375Z,10.50
2019-01-16T11:36:44.424Z,10.40
2019-01-16T11:42:15.319Z,10.50
2019-01-16T11:47:41.056Z,10.40
2019-01-16T11:53:12.286Z,10.40
2019-01-16T11:58:45.419Z,10.40
2019-01-16T12:04:13.343Z,10.30
2019-01-16T12:09:43.648Z,10.30
2019-01-16T12:15:14.564Z,10.30
2019-01-16T12:20:39.419Z,10.40
2019-01-16T12:26:09.852Z,10.30
2019-01-16T12:31:35.453Z,10.40
2019-01-16T12:37:06.155Z,10.30
2019-01-16T12:42:37.282Z,10.30
2019-01-16T12:48:08.137Z,10.30
2019-01-16T12:53:39.387Z,10.30
2019-01-16T12:59:01.968Z,10.30
2019-01-16T13:04:32.506Z,10.30
2019-01-16T13:10:03.632Z,10.30
2019-01-16T13:15:34.879Z,10.30
2019-01-16T13:21:12.035Z,10.30
2019-01-16T13:26:43.071Z,10.30
2019-01-16T13:32:13.521Z,10.30
2019-01-16T13:37:40.519Z,10.30
2019-01-16T13:43:10.915Z,10.30
2019-01-16T13:48:52.765Z,10.30
2019-01-16T13:54:27.876Z,10.30
2019-01-16T13:59:55.351Z,10.30
2019-01-16T14:05:26.555Z,10.30
2019-01-16T14:10:45.881Z,10.30
2019-01-16T14:16:16.423Z,10.30
2019-01-16T14:21:36.235Z,10.20
2019-01-16T14:27:07.185Z,10.10
2019-01-16T14:32:38.029Z,10.10
2019-01-16T14:38:11.879Z,10.10
2019-01-16T14:43:48.799Z,10.10
2019-01-16T14:49:19.395Z,10.10
2019-01-16T14:54:50.181Z,10.10
2019-01-16T15:00:26.856Z,10.20
2019-01-16T15:06:04.059Z,10.20
2019-01-16T15:11:34.790Z,10.20
2019-01-16T15:17:06.027Z,10.10
2019-01-16T15:22:36.629Z,10.10
2019-01-16T15:27:57.571Z,10.00
2019-01-16T15:33:31.447Z,10.00
2019-01-16T15:39:01.924Z,10.00
2019-01-16T15:44:34.733Z,10.00
2019-01-16T15:50:05.564Z,10.00
2019-01-16T15:55:34.040Z,10.00
2019-01-16T16:01:03.037Z,9.90
2019-01-16T16:06:40.447Z,10.00
2019-01-16T16:12:11.196Z,10.00
2019-01-16T16:17:41.603Z,10.10
2019-01-16T16:23:18.390Z,10.00
2019-01-16T16:28:43.091Z,10.00
2019-01-16T16:34:01.287Z,10.10
2019-01-16T16:39:32.244Z,10.00
2019-01-16T16:45:03.172Z,10.00
2019-01-16T16:50:36.416Z,9.90
2019-01-16T16:56:04.850Z,10.00
2019-01-16T17:01:31.695Z,9.90
2019-01-16T17:07:05.386Z,9.80
2019-01-16T17:12:28.091Z,9.80
2019-01-16T17:17:49.762Z,9.80
2019-01-16T17:23:20.983Z,9.80
2019-01-16T17:28:51.931Z,9.90
2019-01-16T17:34:12.176Z,9.90
2019-01-16T17:39:43.366Z,9.90
2019-01-16T17:45:14.264Z,9.80
2019-01-16T17:50:47.709Z,9.80
2019-01-16T17:56:18.135Z,9.80
2019-01-16T18:01:49.379Z,9.70
2019-01-16T18:07:19.940Z,9.70
2019-01-16T18:12:42.761Z,9.70
2019-01-16T18:18:19.863Z,9.80
2019-01-16T18:23:50.915Z,9.80
2019-01-16T18:29:17.051Z,9.70
2019-01-16T18:34:47.609Z,9.70
2019-01-16T18:40:18.724Z,9.60
2019-01-16T18:45:45.118Z,9.60
2019-01-16T18:51:16.101Z,9.50
2019-01-16T18:56:47.037Z,10.00
2019-01-16T19:02:14.020Z,9.80
2019-01-16T19:07:45.303Z,9.70
2019-01-16T19:13:15.897Z,9.60
2019-01-16T19:18:46.547Z,9.60
2019-01-16T19:24:17.092Z,9.50
2019-01-16T19:29:50.902Z,9.50
2019-01-16T19:35:27.919Z,9.60
2019-01-16T19:41:04.998Z,9.50
2019-01-16T19:46:35.439Z,9.50
2019-01-16T19:52:06.063Z,9.50
2019-01-16T19:57:36.809Z,9.40
2019-01-16T20:03:08.304Z,9.40
2019-01-16T20:08:31.008Z,9.30
2019-01-16T20:14:01.420Z,9.30
2019-01-16T20:19:26.167Z,9.30
2019-01-16T20:24:52.181Z,9.20
2019-01-16T20:30:22.864Z,9.20
2019-01-16T20:35:45.983Z,9.20
2019-01-16T20:41:19.792Z,9.20
2019-01-16T20:46:47.911Z,9.20
2019-01-16T20:52:18.801Z,9.20
2019-01-16T21:03:19.031Z,9.20
2019-01-16T21:08:47.349Z,9.10
2019-01-16T21:14:18.323Z,9.10
2019-01-16T21:19:43.827Z,9.10
2019-01-16T21:25:16.246Z,9.00
2019-01-16T21:31:05.860Z,8.90
2019-01-16T21:36:30.831Z,8.80
2019-01-16T21:42:00.360Z,8.90
2019-01-16T21:47:36.505Z,8.90
2019-01-16T21:52:54.074Z,9.00
2019-01-16T21:58:28.296Z,8.90
2019-01-16T22:03:48.019Z,8.90
2019-01-16T22:09:15.119Z,8.80
2019-01-16T22:14:52.603Z,8.80
2019-01-16T22:20:16.475Z,8.80
2019-01-16T22:25:47.603Z,8.80
2019-01-16T22:31:18.727Z,8.90
2019-01-16T22:36:41.519Z,9.00
2019-01-16T22:42:12.148Z,8.90
2019-01-16T22:47:32.359Z,8.90
2019-01-16T22:53:06.387Z,8.90
2019-01-16T22:58:22.916Z,9.00
2019-01-16T23:03:53.744Z,9.00
2019-01-16T23:09:24.237Z,9.00
2019-01-16T23:14:42.975Z,8.90
2019-01-16T23:20:21.256Z,8.90
2019-01-16T23:25:52.100Z,8.90
2019-01-16T23:31:25.914Z,8.80
2019-01-16T23:36:56.787Z,8.80
2019-01-16T23:42:27.650Z,8.90
2019-01-16T23:47:48.747Z,8.80
2019-01-16T23:53:19.353Z,8.80
2019-01-16T23:58:50.155Z,8.90
